Lamourie, Louisiana
Current Conditions -  °F | °C
As of 6:53 PM on Sunday 23 Nov 2014 (Local Time) from KAEX Reporting Station
Clear Clear  
Wind Chill: 64°   Ceiling: Unl
Heat Index: 64°   Visibility: 10mi
Dew Point: 58°   Wind: 9mph
Humidity: 80%   Direction: 170°S
Pressure: 29.57"   Gusts: NA
Location:  31.1282°N, 92.3823°W
Report Text: KAEX 240053Z AUTO 17008KT 10SM CLR 18/14 A2957 RMK AO2 SLP017 T01780144
Loading
Personal Weather Stations






























Interactive Weather Map New forecast layout! Learn more

10-Day Weather Forecast

Advertisements
Track Severe Weather on mobile